sensor_id;sensor_type;location;lat;lon;timestamp;pressure;altitude;pressure_sealevel;temperature;humidity
68456;BME280;55437;55.046;38.838;2023-05-23T00:00:58;100304.34;;;14.74;56.82
68456;BME280;55437;55.046;38.838;2023-05-23T00:03:27;100296.66;;;14.72;56.79
68456;BME280;55437;55.046;38.838;2023-05-23T00:05:53;100305.16;;;14.74;56.94
68456;BME280;55437;55.046;38.838;2023-05-23T00:08:20;100303.44;;;14.75;56.75
68456;BME280;55437;55.046;38.838;2023-05-23T00:10:46;100304.22;;;14.77;56.82
68456;BME280;55437;55.046;38.838;2023-05-23T00:13:12;100302.53;;;14.76;56.85
68456;BME280;55437;55.046;38.838;2023-05-23T00:15:39;100316.13;;;14.81;56.69
68456;BME280;55437;55.046;38.838;2023-05-23T00:18:09;100308.25;;;14.84;56.84
68456;BME280;55437;55.046;38.838;2023-05-23T00:20:36;100297.81;;;14.86;57.23
68456;BME280;55437;55.046;38.838;2023-05-23T00:23:03;100299.50;;;14.87;56.93
68456;BME280;55437;55.046;38.838;2023-05-23T00:25:28;100307.19;;;14.88;57.23
68456;BME280;55437;55.046;38.838;2023-05-23T00:28:02;100303.75;;;14.88;57.03
68456;BME280;55437;55.046;38.838;2023-05-23T00:30:29;100302.06;;;14.87;57.14
68456;BME280;55437;55.046;38.838;2023-05-23T00:32:56;100306.50;;;14.85;57.27
68456;BME280;55437;55.046;38.838;2023-05-23T00:35:24;100302.84;;;14.89;56.93
68456;BME280;55437;55.046;38.838;2023-05-23T00:37:50;100308.75;;;14.92;56.84
68456;BME280;55437;55.046;38.838;2023-05-23T00:40:17;100301.72;;;14.96;56.81
68456;BME280;55437;55.046;38.838;2023-05-23T00:42:43;100303.19;;;15.01;56.61
68456;BME280;55437;55.046;38.838;2023-05-23T00:45:09;100303.69;;;15.09;56.35
68456;BME280;55437;55.046;38.838;2023-05-23T00:47:38;100298.25;;;15.16;56.39
68456;BME280;55437;55.046;38.838;2023-05-23T00:50:09;100301.41;;;15.22;56.26
68456;BME280;55437;55.046;38.838;2023-05-23T00:52:36;100300.31;;;15.28;56.06
68456;BME280;55437;55.046;38.838;2023-05-23T00:55:04;100308.84;;;15.30;56.01
68456;BME280;55437;55.046;38.838;2023-05-23T00:57:30;100303.75;;;15.28;56.09
68456;BME280;55437;55.046;38.838;2023-05-23T01:00:00;100313.25;;;15.28;56.07
68456;BME280;55437;55.046;38.838;2023-05-23T01:02:26;100312.59;;;15.23;56.05
68456;BME280;55437;55.046;38.838;2023-05-23T01:04:54;100315.97;;;15.25;56.03
68456;BME280;55437;55.046;38.838;2023-05-23T01:07:20;100323.94;;;15.20;56.24
68456;BME280;55437;55.046;38.838;2023-05-23T01:09:46;100317.03;;;15.21;56.07
68456;BME280;55437;55.046;38.838;2023-05-23T01:15:06;100311.38;;;15.31;56.14
68456;BME280;55437;55.046;38.838;2023-05-23T01:20:15;100321.97;;;15.25;56.04
68456;BME280;55437;55.046;38.838;2023-05-23T01:28:30;100319.75;;;15.36;56.08
68456;BME280;55437;55.046;38.838;2023-05-23T01:30:57;100323.13;;;15.38;56.06
68456;BME280;55437;55.046;38.838;2023-05-23T01:33:27;100326.84;;;15.33;56.25
68456;BME280;55437;55.046;38.838;2023-05-23T01:35:57;100332.25;;;15.27;56.41
68456;BME280;55437;55.046;38.838;2023-05-23T01:38:26;100333.09;;;15.27;56.43
68456;BME280;55437;55.046;38.838;2023-05-23T01:40:52;100334.00;;;15.26;56.45
68456;BME280;55437;55.046;38.838;2023-05-23T01:43:18;100332.31;;;15.25;56.68
68456;BME280;55437;55.046;38.838;2023-05-23T01:45:45;100335.56;;;15.30;56.65
68456;BME280;55437;55.046;38.838;2023-05-23T01:48:12;100320.88;;;15.31;56.69
68456;BME280;55437;55.046;38.838;2023-05-23T01:50:39;100329.31;;;15.34;56.62
68456;BME280;55437;55.046;38.838;2023-05-23T01:53:07;100318.91;;;15.36;56.59
68456;BME280;55437;55.046;38.838;2023-05-23T01:55:35;100324.81;;;15.39;56.50
68456;BME280;55437;55.046;38.838;2023-05-23T01:58:01;100322.09;;;15.42;56.55
68456;BME280;55437;55.046;38.838;2023-05-23T02:00:28;100326.28;;;15.45;56.71
68456;BME280;55437;55.046;38.838;2023-05-23T02:02:54;100309.84;;;15.46;57.10
68456;BME280;55437;55.046;38.838;2023-05-23T02:05:20;100316.50;;;15.52;57.07
68456;BME280;55437;55.046;38.838;2023-05-23T02:07:45;100316.34;;;15.56;57.17
68456;BME280;55437;55.046;38.838;2023-05-23T02:10:11;100320.63;;;15.57;57.39
68456;BME280;55437;55.046;38.838;2023-05-23T02:12:37;100308.66;;;15.53;57.44
68456;BME280;55437;55.046;38.838;2023-05-23T02:15:04;100320.84;;;15.51;57.78
68456;BME280;55437;55.046;38.838;2023-05-23T02:17:30;100314.09;;;15.47;57.90
68456;BME280;55437;55.046;38.838;2023-05-23T02:19:58;100323.91;;;15.40;58.37
68456;BME280;55437;55.046;38.838;2023-05-23T02:22:24;100317.38;;;15.32;58.71
68456;BME280;55437;55.046;38.838;2023-05-23T02:24:50;100309.75;;;15.29;59.17
68456;BME280;55437;55.046;38.838;2023-05-23T02:27:17;100309.25;;;15.21;59.31
68456;BME280;55437;55.046;38.838;2023-05-23T02:29:43;100306.66;;;15.21;59.56
68456;BME280;55437;55.046;38.838;2023-05-23T02:32:09;100302.47;;;15.18;59.74
68456;BME280;55437;55.046;38.838;2023-05-23T02:34:34;100312.59;;;15.23;59.99
68456;BME280;55437;55.046;38.838;2023-05-23T02:37:00;100312.47;;;15.26;60.01
68456;BME280;55437;55.046;38.838;2023-05-23T02:39:26;100303.81;;;15.27;60.11
68456;BME280;55437;55.046;38.838;2023-05-23T02:41:53;100305.19;;;15.34;60.04
68456;BME280;55437;55.046;38.838;2023-05-23T02:44:18;100313.69;;;15.37;60.18
68456;BME280;55437;55.046;38.838;2023-05-23T02:46:45;100308.44;;;15.39;60.40
68456;BME280;55437;55.046;38.838;2023-05-23T02:49:11;100310.31;;;15.35;60.56
68456;BME280;55437;55.046;38.838;2023-05-23T02:51:55;100312.41;;;15.27;60.99
68456;BME280;55437;55.046;38.838;2023-05-23T02:54:21;100310.09;;;15.21;61.13
68456;BME280;55437;55.046;38.838;2023-05-23T02:56:47;100310.66;;;15.28;61.21
68456;BME280;55437;55.046;38.838;2023-05-23T02:59:12;100313.50;;;15.22;61.80
68456;BME280;55437;55.046;38.838;2023-05-23T03:01:38;100312.59;;;15.23;62.09
68456;BME280;55437;55.046;38.838;2023-05-23T03:04:04;100308.97;;;15.27;61.98
68456;BME280;55437;55.046;38.838;2023-05-23T03:06:30;100314.94;;;15.29;62.25
68456;BME280;55437;55.046;38.838;2023-05-23T03:08:59;100316.63;;;15.30;62.14
68456;BME280;55437;55.046;38.838;2023-05-23T03:11:27;100317.50;;;15.29;62.39
68456;BME280;55437;55.046;38.838;2023-05-23T03:13:54;100324.63;;;15.24;62.58
68456;BME280;55437;55.046;38.838;2023-05-23T03:16:21;100322.44;;;15.14;62.97
68456;BME280;55437;55.046;38.838;2023-05-23T03:18:48;100333.06;;;15.08;62.92
68456;BME280;55437;55.046;38.838;2023-05-23T03:21:14;100359.78;;;15.09;63.36
68456;BME280;55437;55.046;38.838;2023-05-23T03:23:41;100347.75;;;15.08;63.31
68456;BME280;55437;55.046;38.838;2023-05-23T03:26:07;100339.97;;;15.08;63.13
68456;BME280;55437;55.046;38.838;2023-05-23T03:28:33;100340.72;;;15.10;63.25
68456;BME280;55437;55.046;38.838;2023-05-23T03:30:59;100345.72;;;15.14;63.04
68456;BME280;55437;55.046;38.838;2023-05-23T03:33:25;100344.88;;;15.14;63.04
68456;BME280;55437;55.046;38.838;2023-05-23T03:35:51;100346.22;;;15.23;62.83
68456;BME280;55437;55.046;38.838;2023-05-23T03:38:17;100347.91;;;15.24;62.75
68456;BME280;55437;55.046;38.838;2023-05-23T03:40:43;100352.06;;;15.28;62.75
68456;BME280;55437;55.046;38.838;2023-05-23T03:43:09;100351.09;;;15.30;62.83
68456;BME280;55437;55.046;38.838;2023-05-23T03:45:41;100342.34;;;15.33;62.37
68456;BME280;55437;55.046;38.838;2023-05-23T03:48:11;100348.03;;;15.41;62.26
68456;BME280;55437;55.046;38.838;2023-05-23T03:50:38;100342.56;;;15.47;62.20
68456;BME280;55437;55.046;38.838;2023-05-23T03:53:22;100345.75;;;15.54;61.73
68456;BME280;55437;55.046;38.838;2023-05-23T03:55:48;100350.72;;;15.58;61.82
68456;BME280;55437;55.046;38.838;2023-05-23T03:58:14;100343.75;;;15.60;61.73
68456;BME280;55437;55.046;38.838;2023-05-23T04:00:42;100334.81;;;15.67;61.59
68456;BME280;55437;55.046;38.838;2023-05-23T04:03:08;100342.22;;;15.75;61.57
68456;BME280;55437;55.046;38.838;2023-05-23T04:05:52;100348.72;;;15.83;61.36
68456;BME280;55437;55.046;38.838;2023-05-23T04:08:18;100340.84;;;15.87;61.33
68456;BME280;55437;55.046;38.838;2023-05-23T04:10:47;100335.28;;;15.94;61.19
68456;BME280;55437;55.046;38.838;2023-05-23T04:13:13;100346.22;;;16.01;61.23
68456;BME280;55437;55.046;38.838;2023-05-23T04:15:39;100341.44;;;16.10;60.91
68456;BME280;55437;55.046;38.838;2023-05-23T04:18:08;100357.56;;;16.17;61.14
68456;BME280;55437;55.046;38.838;2023-05-23T04:20:35;100352.44;;;16.15;61.53
68456;BME280;55437;55.046;38.838;2023-05-23T04:23:01;100347.03;;;16.20;61.52
68456;BME280;55437;55.046;38.838;2023-05-23T04:25:45;100345.00;;;16.27;61.79
68456;BME280;55437;55.046;38.838;2023-05-23T04:28:20;100359.06;;;16.40;61.69
68456;BME280;55437;55.046;38.838;2023-05-23T04:30:46;100346.50;;;16.49;61.55
68456;BME280;55437;55.046;38.838;2023-05-23T04:33:16;100343.06;;;16.49;61.98
68456;BME280;55437;55.046;38.838;2023-05-23T04:35:42;100345.91;;;16.62;62.20
68456;BME280;55437;55.046;38.838;2023-05-23T04:38:09;100342.81;;;16.72;62.07
68456;BME280;55437;55.046;38.838;2023-05-23T04:40:35;100344.88;;;16.83;62.01
68456;BME280;55437;55.046;38.838;2023-05-23T04:43:07;100356.41;;;16.95;61.72
68456;BME280;55437;55.046;38.838;2023-05-23T04:45:47;100337.47;;;17.10;61.39
68456;BME280;55437;55.046;38.838;2023-05-23T04:48:32;100339.22;;;17.26;61.33
68456;BME280;55437;55.046;38.838;2023-05-23T04:51:00;100341.72;;;17.28;61.13
68456;BME280;55437;55.046;38.838;2023-05-23T04:53:33;100334.31;;;17.38;61.43
68456;BME280;55437;55.046;38.838;2023-05-23T04:55:59;100341.09;;;17.40;61.56
68456;BME280;55437;55.046;38.838;2023-05-23T04:58:44;100334.75;;;17.46;61.79
68456;BME280;55437;55.046;38.838;2023-05-23T05:01:36;100332.56;;;17.54;61.62
68456;BME280;55437;55.046;38.838;2023-05-23T05:04:23;100325.31;;;17.60;61.20
68456;BME280;55437;55.046;38.838;2023-05-23T05:06:49;100326.75;;;17.66;61.09
68456;BME280;55437;55.046;38.838;2023-05-23T05:09:17;100328.13;;;17.73;61.12
68456;BME280;55437;55.046;38.838;2023-05-23T05:11:43;100322.34;;;17.84;60.80
68456;BME280;55437;55.046;38.838;2023-05-23T05:14:09;100318.16;;;17.81;61.29
68456;BME280;55437;55.046;38.838;2023-05-23T05:16:36;100296.78;;;17.92;61.09
68456;BME280;55437;55.046;38.838;2023-05-23T05:19:02;100302.81;;;18.08;61.15
68456;BME280;55437;55.046;38.838;2023-05-23T05:21:30;100303.06;;;18.19;60.87
68456;BME280;55437;55.046;38.838;2023-05-23T05:23:56;100303.97;;;18.34;60.59
68456;BME280;55437;55.046;38.838;2023-05-23T05:26:22;100296.09;;;18.65;60.71
68456;BME280;55437;55.046;38.838;2023-05-23T05:28:48;100296.56;;;19.02;60.53
68456;BME280;55437;55.046;38.838;2023-05-23T05:31:16;100299.09;;;19.32;59.69
68456;BME280;55437;55.046;38.838;2023-05-23T05:33:42;100300.94;;;19.58;58.63
68456;BME280;55437;55.046;38.838;2023-05-23T05:36:16;100290.25;;;19.77;58.15
68456;BME280;55437;55.046;38.838;2023-05-23T05:38:46;100294.50;;;19.92;57.68
68456;BME280;55437;55.046;38.838;2023-05-23T05:41:12;100294.25;;;20.09;57.32
68456;BME280;55437;55.046;38.838;2023-05-23T05:43:43;100296.91;;;20.22;57.19
68456;BME280;55437;55.046;38.838;2023-05-23T05:46:10;100291.34;;;20.14;56.53
68456;BME280;55437;55.046;38.838;2023-05-23T05:48:37;100289.91;;;20.23;56.64
68456;BME280;55437;55.046;38.838;2023-05-23T05:51:06;100298.13;;;20.43;56.50
68456;BME280;55437;55.046;38.838;2023-05-23T05:53:33;100303.41;;;20.69;56.29
68456;BME280;55437;55.046;38.838;2023-05-23T05:55:59;100296.03;;;20.75;55.67
68456;BME280;55437;55.046;38.838;2023-05-23T05:58:25;100300.50;;;20.73;55.43
68456;BME280;55437;55.046;38.838;2023-05-23T06:00:57;100305.41;;;20.78;55.39
68456;BME280;55437;55.046;38.838;2023-05-23T06:03:25;100296.75;;;20.77;55.26
68456;BME280;55437;55.046;38.838;2023-05-23T06:05:53;100291.44;;;20.79;55.13
68456;BME280;55437;55.046;38.838;2023-05-23T06:08:20;100295.19;;;20.75;55.21
68456;BME280;55437;55.046;38.838;2023-05-23T06:10:45;100289.13;;;20.62;55.34
68456;BME280;55437;55.046;38.838;2023-05-23T06:13:14;100299.34;;;20.52;55.61
68456;BME280;55437;55.046;38.838;2023-05-23T06:15:42;100296.28;;;20.45;55.93
68456;BME280;55437;55.046;38.838;2023-05-23T06:18:08;100293.28;;;20.52;55.66
68456;BME280;55437;55.046;38.838;2023-05-23T06:20:35;100294.34;;;20.62;55.92
68456;BME280;55437;55.046;38.838;2023-05-23T06:23:04;100295.66;;;20.55;55.53
68456;BME280;55437;55.046;38.838;2023-05-23T06:25:30;100285.88;;;20.31;55.96
68456;BME280;55437;55.046;38.838;2023-05-23T06:27:56;100294.44;;;20.06;56.56
68456;BME280;55437;55.046;38.838;2023-05-23T06:30:22;100300.50;;;19.93;57.10
68456;BME280;55437;55.046;38.838;2023-05-23T06:33:07;100298.41;;;19.85;57.58
68456;BME280;55437;55.046;38.838;2023-05-23T06:35:33;100300.47;;;19.80;58.05
68456;BME280;55437;55.046;38.838;2023-05-23T06:38:00;100295.06;;;19.69;58.23
68456;BME280;55437;55.046;38.838;2023-05-23T06:40:26;100282.72;;;19.58;58.51
68456;BME280;55437;55.046;38.838;2023-05-23T06:42:51;100293.13;;;19.58;59.02
68456;BME280;55437;55.046;38.838;2023-05-23T06:45:37;100301.41;;;19.36;59.82
68456;BME280;55437;55.046;38.838;2023-05-23T06:48:04;100303.16;;;19.36;59.89
68456;BME280;55437;55.046;38.838;2023-05-23T06:50:33;100296.00;;;19.39;60.09
68456;BME280;55437;55.046;38.838;2023-05-23T06:52:58;100296.31;;;19.49;60.30
68456;BME280;55437;55.046;38.838;2023-05-23T06:55:25;100309.41;;;19.33;60.46
68456;BME280;55437;55.046;38.838;2023-05-23T06:57:51;100307.72;;;19.18;60.96
68456;BME280;55437;55.046;38.838;2023-05-23T07:00:18;100309.47;;;19.03;61.63
68456;BME280;55437;55.046;38.838;2023-05-23T07:03:16;100315.03;;;18.97;62.28
68456;BME280;55437;55.046;38.838;2023-05-23T07:05:43;100308.69;;;18.87;62.77
68456;BME280;55437;55.046;38.838;2023-05-23T07:08:09;100314.28;;;18.81;62.69
68456;BME280;55437;55.046;38.838;2023-05-23T07:10:35;100316.38;;;18.75;62.97
68456;BME280;55437;55.046;38.838;2023-05-23T07:13:14;100311.19;;;18.75;63.52
68456;BME280;55437;55.046;38.838;2023-05-23T07:15:40;100308.41;;;18.78;63.82
68456;BME280;55437;55.046;38.838;2023-05-23T07:18:19;100311.09;;;18.76;64.21
68456;BME280;55437;55.046;38.838;2023-05-23T07:20:45;100304.88;;;18.79;64.13
68456;BME280;55437;55.046;38.838;2023-05-23T07:23:14;100297.63;;;18.84;64.18
68456;BME280;55437;55.046;38.838;2023-05-23T07:25:40;100302.47;;;18.90;64.65
68456;BME280;55437;55.046;38.838;2023-05-23T07:28:16;100314.00;;;18.86;64.55
68456;BME280;55437;55.046;38.838;2023-05-23T07:30:42;100315.63;;;18.73;64.87
68456;BME280;55437;55.046;38.838;2023-05-23T07:33:08;100321.03;;;18.69;65.29
68456;BME280;55437;55.046;38.838;2023-05-23T07:35:34;100329.00;;;18.66;65.59
68456;BME280;55437;55.046;38.838;2023-05-23T07:38:00;100335.59;;;18.72;65.84
68456;BME280;55437;55.046;38.838;2023-05-23T07:40:26;100332.56;;;18.80;66.27
68456;BME280;55437;55.046;38.838;2023-05-23T07:42:52;100324.09;;;18.76;66.68
68456;BME280;55437;55.046;38.838;2023-05-23T07:45:18;100335.00;;;18.83;66.67
68456;BME280;55437;55.046;38.838;2023-05-23T07:47:44;100330.19;;;18.91;66.67
68456;BME280;55437;55.046;38.838;2023-05-23T07:50:10;100322.50;;;19.03;66.94
68456;BME280;55437;55.046;38.838;2023-05-23T07:52:36;100330.19;;;18.91;66.85
68456;BME280;55437;55.046;38.838;2023-05-23T07:55:04;100333.63;;;18.91;67.04
68456;BME280;55437;55.046;38.838;2023-05-23T07:57:32;100329.56;;;19.01;67.47
68456;BME280;55437;55.046;38.838;2023-05-23T07:59:57;100334.09;;;18.98;67.39
68456;BME280;55437;55.046;38.838;2023-05-23T08:02:25;100340.22;;;18.83;67.58
68456;BME280;55437;55.046;38.838;2023-05-23T08:04:51;100341.97;;;18.82;67.89
68456;BME280;55437;55.046;38.838;2023-05-23T08:07:18;100335.13;;;18.65;68.63
68456;BME280;55437;55.046;38.838;2023-05-23T08:09:54;100335.72;;;18.55;69.31
68456;BME280;55437;55.046;38.838;2023-05-23T08:12:21;100332.44;;;18.35;70.07
68456;BME280;55437;55.046;38.838;2023-05-23T08:14:51;100324.94;;;18.31;70.55
68456;BME280;55437;55.046;38.838;2023-05-23T08:17:21;100310.25;;;18.30;70.79
68456;BME280;55437;55.046;38.838;2023-05-23T08:19:46;100308.19;;;18.21;71.25
68456;BME280;55437;55.046;38.838;2023-05-23T08:22:12;100318.25;;;18.11;71.76
68456;BME280;55437;55.046;38.838;2023-05-23T08:24:38;100322.25;;;18.17;71.87
68456;BME280;55437;55.046;38.838;2023-05-23T08:27:04;100323.56;;;18.24;72.59
68456;BME280;55437;55.046;38.838;2023-05-23T08:29:34;100319.72;;;18.31;72.58
68456;BME280;55437;55.046;38.838;2023-05-23T08:32:00;100319.66;;;18.32;72.36
68456;BME280;55437;55.046;38.838;2023-05-23T08:34:27;100319.22;;;18.40;72.56
68456;BME280;55437;55.046;38.838;2023-05-23T08:36:55;100317.50;;;18.55;72.62
68456;BME280;55437;55.046;38.838;2023-05-23T08:39:21;100311.63;;;18.67;72.43
68456;BME280;55437;55.046;38.838;2023-05-23T08:41:55;100303.00;;;18.66;72.87
68456;BME280;55437;55.046;38.838;2023-05-23T08:44:24;100300.56;;;18.63;72.63
68456;BME280;55437;55.046;38.838;2023-05-23T08:47:02;100297.16;;;18.77;72.57
68456;BME280;55437;55.046;38.838;2023-05-23T08:49:49;100296.91;;;18.96;72.51
68456;BME280;55437;55.046;38.838;2023-05-23T08:52:20;100294.06;;;19.15;72.39
68456;BME280;55437;55.046;38.838;2023-05-23T08:55:08;100291.56;;;19.41;71.89
68456;BME280;55437;55.046;38.838;2023-05-23T08:57:34;100295.28;;;19.66;71.26
68456;BME280;55437;55.046;38.838;2023-05-23T09:00:16;100289.66;;;19.86;70.35
68456;BME280;55437;55.046;38.838;2023-05-23T09:02:42;100284.41;;;20.00;69.57
68456;BME280;55437;55.046;38.838;2023-05-23T09:05:21;100284.47;;;20.13;69.13
68456;BME280;55437;55.046;38.838;2023-05-23T09:07:48;100282.19;;;20.21;68.06
68456;BME280;55437;55.046;38.838;2023-05-23T09:10:17;100280.47;;;20.34;67.28
68456;BME280;55437;55.046;38.838;2023-05-23T09:12:46;100285.66;;;20.48;66.60
68456;BME280;55437;55.046;38.838;2023-05-23T09:15:13;100282.31;;;20.59;66.40
68456;BME280;55437;55.046;38.838;2023-05-23T09:17:39;100282.44;;;20.70;65.73
68456;BME280;55437;55.046;38.838;2023-05-23T09:20:15;100281.44;;;20.85;65.62
68456;BME280;55437;55.046;38.838;2023-05-23T09:22:48;100280.25;;;21.02;65.12
68456;BME280;55437;55.046;38.838;2023-05-23T09:25:16;100272.22;;;21.18;64.98
68456;BME280;55437;55.046;38.838;2023-05-23T09:27:44;100265.69;;;21.25;63.68
68456;BME280;55437;55.046;38.838;2023-05-23T09:30:11;100268.50;;;21.35;62.84
68456;BME280;55437;55.046;38.838;2023-05-23T09:32:57;100273.91;;;21.44;61.96
68456;BME280;55437;55.046;38.838;2023-05-23T09:35:23;100275.66;;;21.56;62.25
68456;BME280;55437;55.046;38.838;2023-05-23T09:37:49;100271.22;;;21.70;60.64
68456;BME280;55437;55.046;38.838;2023-05-23T09:40:16;100271.09;;;21.84;59.71
68456;BME280;55437;55.046;38.838;2023-05-23T09:45:49;100264.75;;;21.99;59.87
68456;BME280;55437;55.046;38.838;2023-05-23T09:48:18;100261.84;;;21.91;59.42
68456;BME280;55437;55.046;38.838;2023-05-23T09:50:46;100272.50;;;22.01;60.39
68456;BME280;55437;55.046;38.838;2023-05-23T09:53:15;100267.09;;;22.15;60.05
68456;BME280;55437;55.046;38.838;2023-05-23T09:55:42;100266.94;;;22.29;59.18
68456;BME280;55437;55.046;38.838;2023-05-23T09:58:07;100259.69;;;22.33;59.40
68456;BME280;55437;55.046;38.838;2023-05-23T10:00:33;100259.91;;;22.30;58.97
68456;BME280;55437;55.046;38.838;2023-05-23T10:03:10;100262.59;;;22.17;58.42
68456;BME280;55437;55.046;38.838;2023-05-23T10:05:46;100257.44;;;22.04;58.67
68456;BME280;55437;55.046;38.838;2023-05-23T10:08:18;100254.50;;;21.96;58.46
68456;BME280;55437;55.046;38.838;2023-05-23T10:13:26;100257.81;;;21.98;58.33
68456;BME280;55437;55.046;38.838;2023-05-23T10:16:03;100247.13;;;22.14;57.94
68456;BME280;55437;55.046;38.838;2023-05-23T10:18:37;100249.06;;;22.23;57.29
68456;BME280;55437;55.046;38.838;2023-05-23T10:21:11;100257.03;;;22.21;57.08
68456;BME280;55437;55.046;38.838;2023-05-23T10:23:41;100244.06;;;22.20;56.88
68456;BME280;55437;55.046;38.838;2023-05-23T10:26:07;100241.47;;;22.20;57.03
68456;BME280;55437;55.046;38.838;2023-05-23T10:28:33;100239.38;;;22.12;56.87
68456;BME280;55437;55.046;38.838;2023-05-23T10:30:59;100242.84;;;22.13;57.03
68456;BME280;55437;55.046;38.838;2023-05-23T10:33:26;100239.91;;;22.17;57.09
68456;BME280;55437;55.046;38.838;2023-05-23T10:36:08;100233.00;;;22.16;56.99
68456;BME280;55437;55.046;38.838;2023-05-23T10:41:26;100238.03;;;22.31;56.89
68456;BME280;55437;55.046;38.838;2023-05-23T10:44:26;100229.41;;;22.41;56.83
68456;BME280;55437;55.046;38.838;2023-05-23T10:46:57;100240.25;;;22.59;56.85
68456;BME280;55437;55.046;38.838;2023-05-23T10:49:38;100235.44;;;22.77;56.52
68456;BME280;55437;55.046;38.838;2023-05-23T10:52:05;100237.34;;;22.86;55.79
68456;BME280;55437;55.046;38.838;2023-05-23T10:54:36;100232.72;;;22.89;54.67
68456;BME280;55437;55.046;38.838;2023-05-23T10:57:06;100238.91;;;22.88;54.11
68456;BME280;55437;55.046;38.838;2023-05-23T10:59:36;100230.28;;;22.75;53.23
68456;BME280;55437;55.046;38.838;2023-05-23T11:02:05;100220.69;;;22.87;52.75
68456;BME280;55437;55.046;38.838;2023-05-23T11:05:30;100222.03;;;23.04;52.18
68456;BME280;55437;55.046;38.838;2023-05-23T11:08:10;100220.81;;;23.08;52.18
68456;BME280;55437;55.046;38.838;2023-05-23T11:10:55;100212.50;;;23.14;52.46
68456;BME280;55437;55.046;38.838;2023-05-23T11:13:24;100220.34;;;23.25;52.24
68456;BME280;55437;55.046;38.838;2023-05-23T11:15:49;100213.44;;;23.24;51.66
68456;BME280;55437;55.046;38.838;2023-05-23T11:18:26;100209.16;;;23.23;51.42
68456;BME280;55437;55.046;38.838;2023-05-23T11:20:53;100213.66;;;23.32;51.06
68456;BME280;55437;55.046;38.838;2023-05-23T11:23:20;100208.53;;;23.42;51.41
68456;BME280;55437;55.046;38.838;2023-05-23T11:28:56;100206.38;;;23.58;51.40
68456;BME280;55437;55.046;38.838;2023-05-23T11:31:22;100203.03;;;23.56;51.06
68456;BME280;55437;55.046;38.838;2023-05-23T11:33:51;100210.19;;;23.43;50.94
68456;BME280;55437;55.046;38.838;2023-05-23T11:36:17;100203.03;;;23.56;51.10
68456;BME280;55437;55.046;38.838;2023-05-23T11:38:44;100197.09;;;23.65;50.75
68456;BME280;55437;55.046;38.838;2023-05-23T11:41:10;100194.56;;;23.75;50.23
68456;BME280;55437;55.046;38.838;2023-05-23T11:43:36;100192.75;;;23.75;49.76
68456;BME280;55437;55.046;38.838;2023-05-23T11:46:08;100191.09;;;23.74;48.63
68456;BME280;55437;55.046;38.838;2023-05-23T11:48:35;100183.34;;;23.73;46.75
68456;BME280;55437;55.046;38.838;2023-05-23T11:51:01;100180.97;;;23.69;45.77
68456;BME280;55437;55.046;38.838;2023-05-23T11:53:27;100191.97;;;23.63;45.04
68456;BME280;55437;55.046;38.838;2023-05-23T11:55:54;100200.91;;;23.61;43.60
68456;BME280;55437;55.046;38.838;2023-05-23T11:58:40;100192.09;;;23.62;43.36
68456;BME280;55437;55.046;38.838;2023-05-23T12:01:09;100181.78;;;23.70;43.43
68456;BME280;55437;55.046;38.838;2023-05-23T12:03:45;100188.28;;;23.66;43.05
68456;BME280;55437;55.046;38.838;2023-05-23T12:06:17;100188.59;;;23.73;43.33
68456;BME280;55437;55.046;38.838;2023-05-23T12:08:43;100183.59;;;23.69;42.55
68456;BME280;55437;55.046;38.838;2023-05-23T12:11:09;100176.28;;;23.84;42.85
68456;BME280;55437;55.046;38.838;2023-05-23T12:13:40;100171.63;;;23.88;42.43
68456;BME280;55437;55.046;38.838;2023-05-23T12:16:07;100180.75;;;23.93;42.28
68456;BME280;55437;55.046;38.838;2023-05-23T12:18:51;100185.09;;;23.83;41.89
68456;BME280;55437;55.046;38.838;2023-05-23T12:21:17;100177.94;;;23.85;42.08
68456;BME280;55437;55.046;38.838;2023-05-23T12:23:43;100182.78;;;24.01;42.03
68456;BME280;55437;55.046;38.838;2023-05-23T12:26:09;100174.44;;;23.96;41.72
68456;BME280;55437;55.046;38.838;2023-05-23T12:28:36;100180.03;;;24.02;41.91
68456;BME280;55437;55.046;38.838;2023-05-23T12:33:38;100188.28;;;24.19;41.72
68456;BME280;55437;55.046;38.838;2023-05-23T12:36:05;100167.09;;;24.11;41.22
68456;BME280;55437;55.046;38.838;2023-05-23T12:38:34;100160.06;;;24.11;40.81
68456;BME280;55437;55.046;38.838;2023-05-23T12:41:15;100162.44;;;24.14;40.78
68456;BME280;55437;55.046;38.838;2023-05-23T12:43:49;100164.19;;;24.25;41.33
68456;BME280;55437;55.046;38.838;2023-05-23T12:46:15;100163.59;;;24.42;41.34
68456;BME280;55437;55.046;38.838;2023-05-23T12:48:41;100158.84;;;24.57;41.31
68456;BME280;55437;55.046;38.838;2023-05-23T12:51:25;100163.06;;;24.69;41.37
68456;BME280;55437;55.046;38.838;2023-05-23T12:53:50;100156.53;;;24.63;40.72
68456;BME280;55437;55.046;38.838;2023-05-23T12:56:16;100159.72;;;24.67;40.77
68456;BME280;55437;55.046;38.838;2023-05-23T12:58:42;100147.00;;;24.62;40.53
68456;BME280;55437;55.046;38.838;2023-05-23T13:01:08;100147.56;;;24.66;41.15
68456;BME280;55437;55.046;38.838;2023-05-23T13:03:34;100146.84;;;24.64;40.88
68456;BME280;55437;55.046;38.838;2023-05-23T13:06:00;100146.59;;;24.67;40.88
68456;BME280;55437;55.046;38.838;2023-05-23T13:09:09;100143.00;;;24.68;40.46
68456;BME280;55437;55.046;38.838;2023-05-23T13:11:35;100138.09;;;24.54;40.51
68456;BME280;55437;55.046;38.838;2023-05-23T13:14:02;100143.19;;;24.46;40.55
68456;BME280;55437;55.046;38.838;2023-05-23T13:16:29;100138.44;;;24.39;40.43